Relevés horaires Bierset (Belgique)


Relevés horaires à Bierset - Mardi 09 Juin 2020
Heure UTC1 Température [°C] Vent [km/h] Hum. [%] Pres.4 [hPa] Visi. [Km] Nébu. [octa] Préc.5 [mm] Cond.
2m. Res. Ros. Dir.2 Vit. Moy. Raf.3
23:00 11.2 11.2 8.6 N 1.9 3.7 5.6 84 1018.7(0.1/3h) 18 6/8 -- --
22:00 10.8 10.8 8.5 NNO 1.9 3.7 5.6 86 1018.7(0.3/3h) 20 3/8 -- --
21:00 12.0 12.0 9.0 NNO 3.7 7.4 11.1 82 1018.7(0.6/3h) 25 5/8 -- --
20:00 13.7 13.7 8.7 N 3.7 5.6 9.3 72 1018.4(0.7/3h) 25 5/8 -- --
19:00 14.2 14.2 8.5 N 5.6 7.4 11.1 69 1018.2(0.3/3h) 25 7/8 -- --
18:00 14.6 14.5 8.5 N 7.4 7.4 11.1 67 1017.9(-0.2/3h) 25 7/8 0/12h
--
17:00 15.3 15.3 9.0 N 7.4 7.4 11.1 66 1017.6(-0.5/3h) 12 7/8 -- --
16:00 15.3 15.3 9.7 N 5.6 7.4 11.1 69 1017.8(-0.6/3h) 12 7/8 -- --
15:00 14.9 14.9 9.1 N 7.4 7.4 11.1 68 1018.1(-0.6/3h) 10 7/8 -- --
14:00 14.5 14.4 9.8 N 7.4 7.4 11.1 73 1018.2(-0.8/3h) 9 7/8 -- --
13:00 13.6 13.6 9.7 N 5.6 7.4 9.3 77 1018.6(-0.3/3h) 8 7/8 -- --
12:00 13.0 13.0 9.7 N 3.7 7.4 9.3 80 1018.9(0.2/3h) 8 7/8 0/6h
--
11:00 12.4 12.3 9.5 N 5.6 5.6 9.3 82 1019.2(0.6/3h) 8 7/8 -- --
10:00 12.7 12.7 9.6 N 5.6 7.4 9.3 81 1018.9(0.8/3h) 8 7/8 -- --
09:00 12.2 12.1 9.5 N 5.6 7.4 9.3 84 1018.8(1.0/3h) 8 7/8 -- --
08:00 11.7 11.5 9.6 N 5.6 7.4 9.3 87 1018.6(1.1/3h) 8 7/8 -- --
07:00 11.6 11.4 9.9 N 5.6 5.6 9.3 89 1018.2(1.0/3h) 8 7/8 -- --
06:00 11.4 11.2 10.1 N 5.6 7.4 9.3 92 1017.8(0.7/3h) 8 7/8 0/12h
--
05:00 11.7 11.5 10.5 NNE 5.6 5.6 9.3 92 1017.6(0.2/3h) 9 7/8 -- --
04:00 11.5 11.5 10.8 N 3.7 5.6 7.4 95 1017.2(-0.4/3h) 7 8/8 -- --
03:00 11.2 11.2 10.3 N 3.7 5.6 9.3 94 1017.1(-0.4/3h) 7 8/8 -- --
02:00 11.3 11.3 10.5 NNO 3.7 3.7 5.6 95 1017.3(-0.2/3h) 7 8/8 -- --
01:00 11.4 11.4 10.4 NNO 3.7 5.6 9.3 94 1017.6(0.2/3h) 9 8/8 -- --

1 Coordinated Universal Time. Actuellement il est 23:00 locale et 21:00 UTC.

2 Le vent souffle depuis la direction indiquée vers la direction oposée.

3 Les rafales max. sont disponible 40 min après l'heure du relevé.

4 Pour les stations d'altitude (plus de 600m) le géopotentiel du niveau le plus proche de la pression obligatoire est indiqué.

5 Les stations disposant d'un diffuseur peuvent indiquer "trace". Cela signifie que des précipitations ont touchés le sol mais que la quantité est inférieure à 0.1 mm.

Récapitulatif de la journée
Température [°C] Vent [km/h] Ensoleillement4 [h] Precipitations totale5 [mm] Pression [Hpa]
Min1 Max.2 Moy.3 Max. Min Max.
11.2 15.5 6.4 11.1 0 h 0 min 0 1017.1 1019.2

1 Température minimale relevée entre 18:00 UTC la veille et 18:00 UTC le jour donné.

2 Température maximale relevée entre 06:00 UTC le jour donné et 06:00 UTC le lendemain.

3 Vent moyen de la journée basé sur les relevés horaires.

4 Ensoleillement en heures relevé entre 06:00 UTC la veille et 06:00 UTC le jour donné.

5 Précipitations totales tombées entre 06:00 UTC la jour donné et 06:00 UTC le lendemain.

Graphiques horaires